createdAt,value
2023-02-15T00:01:39.720Z,6.56
2023-02-15T00:04:11.911Z,6.69
2023-02-15T00:06:42.605Z,8.09
2023-02-15T00:09:14.013Z,9.28
2023-02-15T00:11:51.267Z,9.79
2023-02-15T00:14:22.917Z,8.99
2023-02-15T00:16:54.278Z,8.07
2023-02-15T00:19:25.376Z,7.38
2023-02-15T00:21:56.821Z,7.05
2023-02-15T00:24:27.801Z,8.04
2023-02-15T00:26:58.764Z,9.36
2023-02-15T00:29:29.785Z,9.97
2023-02-15T00:32:00.403Z,9.18
2023-02-15T00:34:31.660Z,8.07
2023-02-15T00:37:02.352Z,7.21
2023-02-15T00:39:33.382Z,6.64
2023-02-15T00:42:04.176Z,6.54
2023-02-15T00:44:34.954Z,7.79
2023-02-15T00:47:05.912Z,9.13
2023-02-15T00:49:38.065Z,9.87
2023-02-15T00:52:08.822Z,10.12
2023-02-15T00:54:41.302Z,9.27
2023-02-15T00:57:12.003Z,8.27
2023-02-15T00:59:43.248Z,7.45
2023-02-15T01:02:14.079Z,6.82
2023-02-15T01:04:45.727Z,6.64
2023-02-15T01:07:16.333Z,7.82
2023-02-15T01:09:47.411Z,9.10
2023-02-15T01:12:18.330Z,9.86
2023-02-15T01:14:51.849Z,10.13
2023-02-15T01:17:24.625Z,9.16
2023-02-15T01:19:55.462Z,8.16
2023-02-15T01:22:26.095Z,7.45
2023-02-15T01:24:57.337Z,6.88
2023-02-15T01:27:28.068Z,6.69
2023-02-15T01:29:59.449Z,7.91
2023-02-15T01:32:30.253Z,9.19
2023-02-15T01:35:01.307Z,9.43
2023-02-15T01:37:34.091Z,8.42
2023-02-15T01:40:06.647Z,7.42
2023-02-15T01:42:37.661Z,6.71
2023-02-15T01:45:16.507Z,6.51
2023-02-15T01:47:49.037Z,7.81
2023-02-15T01:50:23.656Z,8.91
2023-02-15T01:52:56.079Z,9.49
2023-02-15T01:55:29.386Z,8.95
2023-02-15T01:58:00.831Z,7.85
2023-02-15T02:00:31.985Z,7.14
2023-02-15T02:03:03.659Z,6.67
2023-02-15T02:05:34.917Z,7.35
2023-02-15T02:08:05.976Z,8.63
2023-02-15T02:10:36.999Z,9.65
2023-02-15T02:13:09.011Z,10.12
2023-02-15T02:15:46.663Z,9.21
2023-02-15T02:18:23.538Z,8.13
2023-02-15T02:21:07.840Z,7.38
2023-02-15T02:23:46.614Z,6.80
2023-02-15T02:26:37.257Z,6.97
2023-02-15T02:29:31.132Z,8.45
2023-02-15T02:32:14.400Z,9.55
2023-02-15T02:34:47.753Z,10.26
2023-02-15T02:37:21.050Z,9.98
2023-02-15T02:39:54.853Z,8.92
2023-02-15T02:42:30.018Z,8.04
2023-02-15T02:45:03.908Z,7.41
2023-02-15T02:47:37.089Z,6.90
2023-02-15T02:50:09.193Z,7.38
2023-02-15T02:52:42.041Z,8.57
2023-02-15T02:55:14.874Z,9.41
2023-02-15T02:57:49.445Z,9.95
2023-02-15T03:00:20.790Z,9.46
2023-02-15T03:02:53.602Z,8.31
2023-02-15T03:05:27.510Z,7.34
2023-02-15T03:07:59.797Z,6.70
2023-02-15T03:10:31.104Z,6.53
2023-02-15T03:13:02.384Z,7.67
2023-02-15T03:16:05.805Z,8.83
2023-02-15T03:18:38.873Z,9.81
2023-02-15T03:21:10.081Z,10.10
2023-02-15T03:23:42.397Z,9.13
2023-02-15T03:26:13.290Z,8.06
2023-02-15T03:28:45.377Z,7.30
2023-02-15T03:31:17.404Z,6.72
2023-02-15T03:33:52.362Z,6.57
2023-02-15T03:36:25.129Z,7.81
2023-02-15T03:39:01.096Z,8.97
2023-02-15T03:41:34.640Z,9.78
2023-02-15T03:44:08.457Z,9.57
2023-02-15T03:46:45.142Z,8.38
2023-02-15T03:49:18.785Z,7.35
2023-02-15T03:51:51.365Z,6.99
2023-02-15T03:54:38.402Z,7.97
2023-02-15T03:57:27.212Z,9.09
2023-02-15T04:00:15.687Z,9.33
2023-02-15T04:02:52.045Z,8.19
2023-02-15T04:05:23.191Z,7.26
2023-02-15T04:07:53.895Z,7.31
2023-02-15T04:10:42.545Z,8.41
2023-02-15T04:13:13.082Z,9.45
2023-02-15T04:16:02.598Z,9.71
2023-02-15T04:18:52.126Z,8.57
2023-02-15T04:21:41.089Z,7.35
2023-02-15T04:24:30.316Z,7.40
2023-02-15T04:27:01.801Z,8.39
2023-02-15T04:29:32.867Z,9.20
2023-02-15T04:32:04.109Z,9.52
2023-02-15T04:34:34.766Z,8.49
2023-02-15T04:37:05.857Z,7.39
2023-02-15T04:39:36.389Z,6.86
2023-02-15T04:42:07.346Z,7.75
2023-02-15T04:44:37.855Z,8.74
2023-02-15T04:47:08.749Z,9.49
2023-02-15T04:49:39.520Z,9.69
2023-02-15T04:52:10.528Z,8.73
2023-02-15T04:54:41.290Z,7.63
2023-02-15T04:57:12.340Z,6.87
2023-02-15T04:59:42.969Z,6.57
2023-02-15T05:02:13.659Z,7.48
2023-02-15T05:04:44.380Z,8.50
2023-02-15T05:07:19.257Z,9.35
2023-02-15T05:09:49.806Z,9.45
2023-02-15T05:12:20.762Z,8.42
2023-02-15T05:14:51.566Z,7.46
2023-02-15T05:17:22.602Z,6.76
2023-02-15T05:19:53.130Z,6.26
2023-02-15T05:22:24.480Z,6.41
2023-02-15T05:25:12.935Z,7.53
2023-02-15T05:28:03.302Z,8.58
2023-02-15T05:30:35.195Z,9.29
2023-02-15T05:33:06.282Z,9.37
2023-02-15T05:35:38.312Z,8.27
2023-02-15T05:38:09.440Z,7.23
2023-02-15T05:40:39.983Z,6.52
2023-02-15T05:43:11.158Z,6.26
2023-02-15T05:45:41.885Z,7.40
2023-02-15T05:48:12.961Z,8.58
2023-02-15T05:50:43.472Z,9.27
2023-02-15T05:53:15.684Z,9.73
2023-02-15T05:55:46.440Z,9.56
2023-02-15T05:58:18.576Z,8.54
2023-02-15T06:00:49.518Z,7.57
2023-02-15T06:03:20.418Z,6.86
2023-02-15T06:05:51.216Z,6.64
2023-02-15T06:08:22.240Z,7.66
2023-02-15T06:10:52.865Z,8.80
2023-02-15T06:13:23.897Z,9.49
2023-02-15T06:15:54.596Z,9.76
2023-02-15T06:18:25.773Z,8.63
2023-02-15T06:20:56.426Z,7.62
2023-02-15T06:23:28.068Z,6.89
2023-02-15T06:25:58.937Z,7.10
2023-02-15T06:28:30.048Z,8.24
2023-02-15T06:31:00.889Z,8.81
2023-02-15T06:33:34.810Z,9.26
2023-02-15T06:36:05.926Z,8.19
2023-02-15T06:38:37.124Z,7.11
2023-02-15T06:41:07.696Z,6.90
2023-02-15T06:43:40.882Z,7.79
2023-02-15T06:46:11.873Z,8.72
2023-02-15T06:48:42.830Z,9.33
2023-02-15T06:51:13.389Z,8.92
2023-02-15T06:53:45.604Z,7.86
2023-02-15T06:56:16.296Z,7.09
2023-02-15T06:58:47.639Z,7.56
2023-02-15T07:01:18.595Z,8.47
2023-02-15T07:03:49.613Z,9.13
2023-02-15T07:06:20.304Z,8.88
2023-02-15T07:08:51.454Z,7.91
2023-02-15T07:11:39.473Z,7.21
2023-02-15T07:14:10.616Z,8.01
2023-02-15T07:16:41.400Z,9.03
2023-02-15T07:19:12.508Z,9.27
2023-02-15T07:21:43.284Z,8.37
2023-02-15T07:24:14.262Z,7.38
2023-02-15T07:26:44.844Z,7.43
2023-02-15T07:29:16.809Z,8.38
2023-02-15T07:31:47.750Z,9.12
2023-02-15T07:34:18.989Z,8.83
2023-02-15T07:36:49.722Z,7.81
2023-02-15T07:39:20.886Z,7.23
2023-02-15T07:41:51.418Z,8.00
2023-02-15T07:44:22.642Z,8.95
2023-02-15T07:46:53.286Z,9.39
2023-02-15T07:49:24.462Z,8.46
2023-02-15T07:51:55.224Z,7.48
2023-02-15T07:54:26.500Z,7.06
2023-02-15T07:56:57.437Z,7.93
2023-02-15T07:59:28.990Z,9.05
2023-02-15T08:01:59.508Z,9.69
2023-02-15T08:04:30.425Z,9.24
2023-02-15T08:07:00.881Z,8.11
2023-02-15T08:09:32.535Z,7.30
2023-02-15T08:12:03.784Z,7.58
2023-02-15T08:14:34.860Z,8.68
2023-02-15T08:17:06.474Z,9.77
2023-02-15T08:19:38.741Z,10.22
2023-02-15T08:22:11.430Z,9.31
2023-02-15T08:24:43.761Z,8.37
2023-02-15T08:27:14.739Z,7.91
2023-02-15T08:29:45.930Z,8.80
2023-02-15T08:32:16.688Z,9.62
2023-02-15T08:34:48.286Z,9.07
2023-02-15T08:37:18.998Z,8.03
2023-02-15T08:39:50.043Z,7.62
2023-02-15T08:42:22.212Z,8.44
2023-02-15T08:44:53.093Z,9.23
2023-02-15T08:47:23.680Z,8.97
2023-02-15T08:49:55.283Z,8.09
2023-02-15T08:52:26.785Z,7.44
2023-02-15T08:54:57.813Z,8.04
2023-02-15T08:57:29.729Z,9.20
2023-02-15T09:00:00.765Z,9.62
2023-02-15T09:02:31.360Z,8.87
2023-02-15T09:05:02.488Z,8.05
2023-02-15T09:07:33.003Z,7.82
2023-02-15T09:10:03.919Z,8.73
2023-02-15T09:12:34.585Z,9.64
2023-02-15T09:15:06.196Z,9.81
2023-02-15T09:17:36.784Z,8.91
2023-02-15T09:20:09.820Z,8.22
2023-02-15T09:22:40.484Z,8.42
2023-02-15T09:25:11.557Z,9.48
2023-02-15T09:27:42.477Z,9.21
2023-02-15T09:30:14.977Z,8.34
2023-02-15T09:32:47.216Z,7.66
2023-02-15T09:35:22.994Z,7.44
2023-02-15T09:37:53.854Z,8.58
2023-02-15T09:40:25.831Z,9.76
2023-02-15T09:43:12.095Z,10.08
2023-02-15T09:45:53.463Z,9.17
2023-02-15T09:48:40.761Z,8.29
2023-02-15T09:51:31.576Z,7.91
2023-02-15T09:54:12.509Z,9.01
2023-02-15T09:56:48.624Z,9.90
2023-02-15T09:59:22.781Z,9.18
2023-02-15T10:01:58.099Z,8.45
2023-02-15T10:04:38.369Z,7.92
2023-02-15T10:07:15.697Z,8.62
2023-02-15T10:09:52.134Z,9.78
2023-02-15T10:12:36.943Z,9.63
2023-02-15T10:15:15.651Z,8.93
2023-02-15T10:17:53.207Z,8.30
2023-02-15T10:20:28.461Z,8.10
2023-02-15T10:23:08.305Z,9.28
2023-02-15T10:25:42.801Z,10.28
2023-02-15T10:28:17.606Z,9.81
2023-02-15T10:30:51.795Z,9.11
2023-02-15T10:33:34.848Z,8.58
2023-02-15T10:36:14.052Z,8.18
2023-02-15T10:38:47.175Z,8.49
2023-02-15T10:41:23.666Z,9.81
2023-02-15T10:44:05.203Z,10.67
2023-02-15T10:46:44.727Z,9.95
2023-02-15T10:49:20.946Z,9.13
2023-02-15T10:51:58.327Z,8.64
2023-02-15T10:54:33.926Z,8.76
2023-02-15T10:57:07.239Z,10.10
2023-02-15T10:59:42.641Z,10.86
2023-02-15T11:02:19.289Z,10.30
2023-02-15T11:04:53.610Z,9.60
2023-02-15T11:07:26.657Z,9.11
2023-02-15T11:10:02.485Z,8.75
2023-02-15T11:12:34.096Z,8.76
2023-02-15T11:15:06.643Z,10.00
2023-02-15T11:17:39.969Z,10.91
2023-02-15T11:20:17.808Z,10.41
2023-02-15T11:22:50.674Z,9.71
2023-02-15T11:25:25.938Z,9.30
2023-02-15T11:27:57.892Z,9.04
2023-02-15T11:44:18.406Z,10.30
2023-02-15T11:46:49.302Z,9.83
2023-02-15T11:49:25.204Z,9.47
2023-02-15T11:51:56.623Z,9.21
2023-02-15T11:54:29.866Z,9.01
2023-02-15T11:56:58.893Z,8.88
2023-02-15T11:59:32.763Z,9.00
2023-02-15T12:02:03.449Z,10.24
2023-02-15T12:04:40.559Z,11.29
2023-02-15T12:07:16.370Z,10.92
2023-02-15T12:09:49.633Z,10.36
2023-02-15T12:12:24.519Z,9.91
2023-02-15T12:14:56.202Z,9.62
2023-02-15T12:17:28.464Z,9.44
2023-02-15T12:20:00.630Z,9.30
2023-02-15T12:22:32.963Z,9.19
2023-02-15T12:25:06.660Z,9.08
2023-02-15T12:27:38.176Z,9.02
2023-02-15T12:30:20.228Z,9.90
2023-02-15T12:32:54.032Z,11.10
2023-02-15T12:35:30.240Z,10.89
2023-02-15T12:38:03.570Z,10.41
2023-02-15T12:40:35.429Z,10.09
2023-02-15T12:43:09.775Z,9.89
2023-02-15T12:45:41.129Z,9.76
2023-02-15T12:48:17.047Z,9.66
2023-02-15T12:51:06.269Z,9.57
2023-02-15T12:53:38.071Z,9.44
2023-02-15T12:56:10.019Z,9.34
2023-02-15T12:58:47.125Z,9.28
2023-02-15T13:01:22.862Z,9.28
2023-02-15T13:03:58.722Z,9.29
2023-02-15T13:06:31.305Z,9.30
2023-02-15T13:09:08.485Z,9.34
2023-02-15T13:11:40.263Z,9.35
2023-02-15T13:14:19.022Z,9.37
2023-02-15T13:16:51.463Z,9.40
2023-02-15T13:19:25.548Z,9.43
2023-02-15T13:21:58.414Z,9.43
2023-02-15T13:24:30.682Z,9.44
2023-02-15T13:27:14.594Z,9.41
2023-02-15T13:29:47.369Z,9.40
2023-02-15T13:32:24.520Z,9.41
2023-02-15T13:34:58.020Z,9.44
2023-02-15T13:37:37.988Z,9.49
2023-02-15T13:40:15.626Z,9.57
2023-02-15T13:42:49.235Z,10.33
2023-02-15T13:45:36.084Z,12.49
2023-02-15T13:48:12.533Z,13.72
2023-02-15T13:50:54.129Z,14.50
2023-02-15T13:53:39.302Z,15.15
2023-02-15T13:56:14.478Z,15.77
2023-02-15T13:59:15.064Z,16.25
2023-02-15T14:01:47.829Z,16.65
2023-02-15T14:04:32.261Z,16.82
2023-02-15T14:07:11.059Z,16.98
2023-02-15T14:09:49.140Z,17.14
2023-02-15T14:12:35.806Z,17.28
2023-02-15T14:15:20.226Z,17.44
2023-02-15T14:17:55.830Z,17.65
2023-02-15T14:20:27.974Z,17.88
2023-02-15T14:23:01.321Z,18.07
2023-02-15T14:25:36.085Z,18.14
2023-02-15T14:28:10.155Z,18.28
2023-02-15T14:30:43.741Z,18.38
2023-02-15T14:33:25.728Z,18.50
2023-02-15T14:36:01.732Z,18.58
2023-02-15T14:38:40.216Z,18.48
2023-02-15T14:41:14.668Z,18.29
2023-02-15T14:43:49.406Z,18.04
2023-02-15T14:46:24.922Z,17.90
2023-02-15T14:48:57.053Z,17.76
2023-02-15T14:51:49.351Z,17.57
2023-02-15T14:54:41.638Z,17.35
2023-02-15T14:57:26.435Z,17.12
2023-02-15T15:00:00.036Z,16.98
2023-02-15T15:02:41.589Z,16.91
2023-02-15T15:05:17.955Z,16.88
2023-02-15T15:07:50.731Z,16.66
2023-02-15T15:10:41.579Z,16.47
2023-02-15T15:13:29.651Z,16.27
2023-02-15T15:16:20.614Z,15.96
2023-02-15T15:18:51.828Z,15.68
2023-02-15T15:21:40.478Z,15.41
2023-02-15T15:24:45.112Z,15.05
2023-02-15T15:27:36.168Z,14.72
2023-02-15T15:30:29.501Z,14.21
2023-02-15T15:32:59.490Z,13.65
2023-02-15T15:35:36.187Z,13.11
2023-02-15T15:38:15.092Z,12.58
2023-02-15T15:40:57.492Z,12.16
2023-02-15T15:43:42.360Z,11.66
2023-02-15T15:46:21.086Z,11.17
2023-02-15T15:48:56.398Z,10.77
2023-02-15T15:51:30.736Z,10.43
2023-02-15T15:54:02.086Z,10.10
2023-02-15T15:56:35.687Z,9.76
2023-02-15T15:59:07.919Z,9.42
2023-02-15T16:01:42.651Z,9.12
2023-02-15T16:04:14.448Z,8.86
2023-02-15T16:06:46.850Z,8.63
2023-02-15T16:09:20.060Z,8.39
2023-02-15T16:11:53.239Z,8.52
2023-02-15T16:14:27.616Z,9.80
2023-02-15T16:17:04.744Z,10.93
2023-02-15T16:19:41.422Z,11.31
2023-02-15T16:22:12.950Z,10.55
2023-02-15T16:24:51.404Z,9.69
2023-02-15T16:27:44.608Z,9.03
2023-02-15T16:30:26.806Z,8.82
2023-02-15T16:33:05.321Z,10.04
2023-02-15T16:35:42.428Z,11.22
2023-02-15T16:38:13.226Z,11.96
2023-02-15T16:40:54.959Z,12.20
2023-02-15T16:43:28.452Z,11.22
2023-02-15T16:46:05.287Z,10.25
2023-02-15T16:48:43.098Z,9.51
2023-02-15T16:51:21.119Z,8.95
2023-02-15T16:53:52.111Z,8.69
2023-02-15T16:56:30.954Z,9.66
2023-02-15T16:59:07.120Z,10.81
2023-02-15T17:01:38.254Z,11.42
2023-02-15T17:04:17.027Z,11.25
2023-02-15T17:07:04.097Z,10.20
2023-02-15T17:09:35.757Z,9.21
2023-02-15T17:12:08.655Z,8.51
2023-02-15T17:14:42.559Z,8.49
2023-02-15T17:17:16.485Z,9.56
2023-02-15T17:19:55.451Z,10.58
2023-02-15T17:22:29.023Z,11.27
2023-02-15T17:25:02.734Z,11.20
2023-02-15T17:27:37.103Z,10.01
2023-02-15T17:30:16.091Z,9.09
2023-02-15T17:32:56.483Z,8.36
2023-02-15T17:35:28.655Z,8.68
2023-02-15T17:38:07.093Z,9.86
2023-02-15T17:40:38.412Z,10.67
2023-02-15T17:43:09.445Z,10.89
2023-02-15T17:45:42.974Z,10.00
2023-02-15T17:48:26.901Z,8.93
2023-02-15T17:50:58.074Z,8.50
2023-02-15T17:53:29.117Z,9.51
2023-02-15T17:56:11.187Z,10.46
2023-02-15T17:58:46.013Z,11.13
2023-02-15T18:01:42.617Z,11.49
2023-02-15T18:04:36.017Z,11.78
2023-02-15T18:07:29.483Z,10.75
2023-02-15T18:10:26.737Z,9.42
2023-02-15T18:13:02.658Z,8.50
2023-02-15T18:15:33.423Z,7.88
2023-02-15T18:18:05.108Z,7.66
2023-02-15T18:20:37.186Z,8.74
2023-02-15T18:23:10.773Z,9.88
2023-02-15T18:25:41.697Z,10.64
2023-02-15T18:28:18.054Z,11.13
2023-02-15T18:30:53.454Z,11.53
2023-02-15T18:33:31.073Z,11.05
2023-02-15T18:36:06.981Z,9.73
2023-02-15T18:38:42.509Z,8.76
2023-02-15T18:41:19.661Z,8.00
2023-02-15T18:43:55.859Z,7.74
2023-02-15T18:46:26.616Z,8.90
2023-02-15T18:49:02.509Z,10.06
2023-02-15T18:51:39.979Z,10.78
2023-02-15T18:54:17.184Z,11.26
2023-02-15T18:56:54.372Z,11.19
2023-02-15T18:59:30.469Z,10.05
2023-02-15T19:02:02.039Z,8.92
2023-02-15T19:04:33.120Z,8.43
2023-02-15T19:07:08.650Z,9.37
2023-02-15T19:09:40.080Z,10.19
2023-02-15T19:12:13.326Z,10.72
2023-02-15T19:14:48.648Z,10.36
2023-02-15T19:17:24.964Z,9.06
2023-02-15T19:19:55.976Z,7.99
2023-02-15T19:22:28.942Z,8.47
2023-02-15T19:25:01.030Z,9.50
2023-02-15T19:27:33.051Z,10.16
2023-02-15T19:30:05.880Z,10.61
2023-02-15T19:32:36.787Z,10.46
2023-02-15T19:35:08.688Z,9.18
2023-02-15T19:37:42.473Z,7.98
2023-02-15T19:40:19.742Z,7.45
2023-02-15T19:42:50.837Z,8.44
2023-02-15T19:45:27.803Z,9.44
2023-02-15T19:48:03.626Z,10.08
2023-02-15T19:50:39.873Z,10.47
2023-02-15T19:53:16.896Z,10.37
2023-02-15T19:55:47.804Z,8.99
2023-02-15T19:58:20.442Z,7.78
2023-02-15T20:00:56.140Z,7.38
2023-02-15T20:03:32.078Z,8.43
2023-02-15T20:06:03.195Z,9.36
2023-02-15T20:08:34.052Z,9.89
2023-02-15T20:11:10.392Z,10.25
2023-02-15T20:13:41.899Z,10.52
2023-02-15T20:16:12.966Z,10.30
2023-02-15T20:18:46.679Z,8.69
2023-02-15T20:21:19.526Z,7.83
2023-02-15T20:23:55.406Z,8.31
2023-02-15T20:26:31.712Z,8.83
2023-02-15T20:29:07.269Z,9.14
2023-02-15T20:31:43.474Z,8.99
2023-02-15T20:34:14.637Z,7.51
2023-02-15T20:36:45.191Z,6.78
2023-02-15T20:39:17.685Z,7.47
2023-02-15T20:41:51.123Z,8.22
2023-02-15T20:44:23.626Z,8.63
2023-02-15T20:46:55.488Z,8.95
2023-02-15T20:49:33.031Z,9.27
2023-02-15T20:52:04.756Z,7.77
2023-02-15T20:54:37.376Z,6.90
2023-02-15T20:57:13.141Z,7.42
2023-02-15T20:59:48.526Z,7.93
2023-02-15T21:02:20.431Z,8.32
2023-02-15T21:04:51.477Z,8.66
2023-02-15T21:07:26.418Z,8.97
2023-02-15T21:09:57.809Z,9.22
2023-02-15T21:12:28.840Z,8.73
2023-02-15T21:14:59.821Z,7.15
2023-02-15T21:17:30.634Z,6.13
2023-02-15T21:20:01.650Z,6.79
2023-02-15T21:22:32.387Z,7.77
2023-02-15T21:25:08.537Z,8.43
2023-02-15T21:27:44.676Z,8.66
2023-02-15T21:30:22.204Z,7.16
2023-02-15T21:32:53.522Z,6.95
2023-02-15T21:35:24.207Z,8.03
2023-02-15T21:37:55.164Z,8.33
2023-02-15T21:40:28.453Z,8.32
2023-02-15T21:43:17.560Z,8.48
2023-02-15T21:46:06.276Z,8.17
2023-02-15T21:48:37.172Z,6.32
2023-02-15T21:51:25.700Z,5.57
2023-02-15T21:53:57.060Z,6.68
2023-02-15T21:56:27.967Z,7.41
2023-02-15T21:58:58.830Z,7.88
2023-02-15T22:01:30.187Z,7.90
2023-02-15T22:04:01.108Z,8.21
2023-02-15T22:06:32.409Z,8.43
2023-02-15T22:09:03.097Z,8.65
2023-02-15T22:11:34.399Z,8.92
2023-02-15T22:14:05.181Z,8.75
2023-02-15T22:16:36.133Z,7.35
2023-02-15T22:19:07.222Z,6.19
2023-02-15T22:21:38.209Z,6.63
2023-02-15T22:24:09.439Z,7.46
2023-02-15T22:26:40.439Z,8.01
2023-02-15T22:29:14.748Z,8.43
2023-02-15T22:31:45.615Z,8.71
2023-02-15T22:34:24.317Z,8.89
2023-02-15T22:36:56.109Z,7.94
2023-02-15T22:39:27.098Z,6.49
2023-02-15T22:41:58.513Z,5.58
2023-02-15T22:44:31.200Z,6.21
2023-02-15T22:47:02.771Z,6.81
2023-02-15T22:49:33.662Z,7.14
2023-02-15T22:52:04.437Z,7.42
2023-02-15T22:54:35.541Z,7.61
2023-02-15T22:57:06.688Z,7.69
2023-02-15T22:59:37.570Z,7.98
2023-02-15T23:02:11.975Z,8.02
2023-02-15T23:04:42.981Z,8.17
2023-02-15T23:07:15.895Z,6.81
2023-02-15T23:09:47.116Z,5.70
2023-02-15T23:12:28.398Z,6.50
2023-02-15T23:14:59.643Z,7.26
2023-02-15T23:17:30.376Z,7.04
2023-02-15T23:20:01.114Z,7.14
2023-02-15T23:22:32.140Z,7.35
2023-02-15T23:25:02.920Z,7.78
2023-02-15T23:27:51.469Z,7.40
2023-02-15T23:30:23.141Z,5.80
2023-02-15T23:32:54.738Z,5.26
2023-02-15T23:35:26.109Z,6.25
2023-02-15T23:37:56.612Z,6.81
2023-02-15T23:40:44.853Z,7.06
2023-02-15T23:43:19.923Z,7.29
2023-02-15T23:45:50.999Z,7.49
2023-02-15T23:48:33.028Z,7.42
2023-02-15T23:51:05.762Z,5.84
2023-02-15T23:53:36.580Z,5.32
2023-02-15T23:56:08.145Z,6.08
2023-02-15T23:58:40.714Z,6.70
